createdAt,value
2023-05-08T00:00:44.711Z,42.69
2023-05-08T00:01:44.750Z,42.68
2023-05-08T00:02:44.888Z,42.69
2023-05-08T00:03:44.947Z,42.69
2023-05-08T00:04:44.903Z,42.69
2023-05-08T00:05:44.889Z,42.71
2023-05-08T00:06:44.957Z,42.70
2023-05-08T00:07:44.980Z,42.70
2023-05-08T00:08:44.974Z,42.69
2023-05-08T00:09:45.027Z,42.70
2023-05-08T00:10:45.049Z,42.69
2023-05-08T00:11:45.080Z,42.70
2023-05-08T00:12:45.152Z,42.68
2023-05-08T00:13:45.159Z,42.67
2023-05-08T00:14:45.201Z,42.67
2023-05-08T00:15:45.277Z,42.68
2023-05-08T00:16:45.330Z,42.72
2023-05-08T00:17:45.390Z,42.69
2023-05-08T00:18:45.345Z,42.71
2023-05-08T00:19:45.387Z,42.70
2023-05-08T00:20:45.465Z,42.69
2023-05-08T00:21:45.500Z,42.69
2023-05-08T00:22:45.515Z,42.69
2023-05-08T00:23:45.579Z,42.70
2023-05-08T00:24:45.626Z,42.66
2023-05-08T00:25:45.649Z,42.67
2023-05-08T00:26:45.768Z,42.69
2023-05-08T00:27:45.758Z,42.69
2023-05-08T00:28:45.774Z,42.68
2023-05-08T00:29:45.820Z,42.69
2023-05-08T00:30:45.861Z,42.69
2023-05-08T00:31:45.969Z,42.71
2023-05-08T00:32:45.976Z,42.70
2023-05-08T00:33:45.971Z,42.69
2023-05-08T00:34:46.020Z,42.70
2023-05-08T00:35:46.060Z,42.70
2023-05-08T00:36:46.251Z,42.72
2023-05-08T00:37:46.141Z,42.71
2023-05-08T00:38:46.228Z,42.72
2023-05-08T00:39:46.223Z,42.72
2023-05-08T00:40:46.256Z,42.69
2023-05-08T00:41:46.297Z,42.70
2023-05-08T00:42:46.341Z,42.72
2023-05-08T00:43:46.373Z,42.73
2023-05-08T00:44:46.417Z,42.71
2023-05-08T00:45:46.482Z,42.70
2023-05-08T00:46:46.616Z,42.69
2023-05-08T00:47:49.305Z,42.72
2023-05-08T00:48:46.557Z,42.72
2023-05-08T00:49:46.544Z,42.69
2023-05-08T00:50:46.514Z,42.70
2023-05-08T00:51:46.502Z,42.71
2023-05-08T00:52:46.526Z,42.72
2023-05-08T00:53:46.491Z,42.71
2023-05-08T00:54:46.768Z,42.67
2023-05-08T00:55:46.466Z,42.69
2023-05-08T00:56:46.456Z,42.69
2023-05-08T00:57:46.488Z,42.72
2023-05-08T00:58:46.462Z,42.71
2023-05-08T00:59:46.456Z,42.71
2023-05-08T01:00:46.447Z,42.68
2023-05-08T01:01:46.504Z,42.71
2023-05-08T01:02:46.514Z,42.71
2023-05-08T01:03:46.570Z,42.71
2023-05-08T01:04:46.444Z,42.67
2023-05-08T01:05:46.425Z,42.69
2023-05-08T01:06:46.421Z,42.69
2023-05-08T01:07:46.392Z,42.68
2023-05-08T01:08:46.400Z,42.68
2023-05-08T01:09:46.384Z,42.66
2023-05-08T01:10:46.458Z,42.66
2023-05-08T01:11:46.398Z,42.66
2023-05-08T01:12:46.385Z,42.67
2023-05-08T01:13:46.354Z,42.65
2023-05-08T01:14:46.348Z,42.67
2023-05-08T01:15:46.429Z,42.66
2023-05-08T01:16:46.349Z,42.67
2023-05-08T01:17:46.338Z,42.65
2023-05-08T01:18:46.314Z,42.64
2023-05-08T01:19:46.303Z,42.67
2023-05-08T01:20:46.319Z,42.66
2023-05-08T01:21:46.327Z,42.66
2023-05-08T01:22:46.322Z,42.69
2023-05-08T01:23:46.279Z,42.68
2023-05-08T01:24:46.289Z,42.67
2023-05-08T01:25:46.293Z,42.67
2023-05-08T01:26:46.272Z,42.70
2023-05-08T01:27:46.251Z,42.67
2023-05-08T01:28:46.232Z,42.68
2023-05-08T01:29:46.233Z,42.67
2023-05-08T01:30:46.213Z,42.67
2023-05-08T01:31:46.220Z,42.66
2023-05-08T01:32:46.234Z,42.67
2023-05-08T01:33:46.325Z,42.67
2023-05-08T01:34:46.206Z,42.67
2023-05-08T01:35:46.208Z,42.65
2023-05-08T01:36:46.175Z,42.64
2023-05-08T01:37:46.192Z,42.63
2023-05-08T01:38:46.176Z,42.65
2023-05-08T01:39:46.164Z,42.65
2023-05-08T01:40:46.153Z,42.64
2023-05-08T01:41:46.142Z,42.67
2023-05-08T01:42:46.152Z,42.69
2023-05-08T01:43:46.118Z,42.67
2023-05-08T01:44:46.163Z,42.68
2023-05-08T01:45:46.116Z,42.62
2023-05-08T01:46:46.114Z,42.67
2023-05-08T01:47:46.136Z,42.64
2023-05-08T01:48:46.139Z,42.66
2023-05-08T01:49:46.193Z,42.65
2023-05-08T01:50:46.226Z,42.66
2023-05-08T01:51:46.264Z,42.67
2023-05-08T01:52:46.316Z,42.65
2023-05-08T01:53:46.309Z,42.66
2023-05-08T01:54:46.367Z,42.66
2023-05-08T01:55:46.445Z,42.67
2023-05-08T01:56:46.420Z,42.61
2023-05-08T01:57:46.461Z,42.64
2023-05-08T01:58:46.485Z,42.69
2023-05-08T01:59:46.496Z,42.67
2023-05-08T02:00:46.545Z,42.67
2023-05-08T02:01:46.597Z,42.67
2023-05-08T02:02:46.738Z,42.65
2023-05-08T02:03:46.667Z,42.68
2023-05-08T02:04:46.715Z,42.68
2023-05-08T02:05:46.719Z,42.69
2023-05-08T02:06:46.768Z,42.66
2023-05-08T02:07:46.785Z,42.64
2023-05-08T02:08:46.805Z,42.66
2023-05-08T02:09:46.850Z,42.68
2023-05-08T02:10:46.901Z,42.65
2023-05-08T02:11:46.933Z,42.64
2023-05-08T02:12:46.975Z,42.68
2023-05-08T02:13:47.008Z,42.66
2023-05-08T02:14:47.034Z,42.69
2023-05-08T02:15:47.088Z,42.68
2023-05-08T02:16:47.159Z,42.68
2023-05-08T02:17:47.202Z,42.63
2023-05-08T02:18:47.212Z,42.71
2023-05-08T02:19:47.241Z,42.67
2023-05-08T02:20:47.268Z,42.69
2023-05-08T02:21:47.302Z,42.67
2023-05-08T02:22:47.372Z,42.68
2023-05-08T02:23:47.373Z,42.66
2023-05-08T02:24:47.422Z,42.66
2023-05-08T02:25:47.440Z,42.69
2023-05-08T02:26:47.509Z,42.68
2023-05-08T02:27:47.525Z,42.67
2023-05-08T02:28:47.563Z,42.67
2023-05-08T02:29:47.589Z,42.65
2023-05-08T02:30:47.622Z,42.65
2023-05-08T02:31:47.676Z,42.67
2023-05-08T02:32:47.709Z,42.66
2023-05-08T02:33:47.719Z,42.66
2023-05-08T02:34:58.811Z,42.67
2023-05-08T02:35:48.744Z,42.68
2023-05-08T02:36:47.766Z,42.65
2023-05-08T02:37:47.736Z,42.66
2023-05-08T02:38:47.733Z,42.65
2023-05-08T02:39:47.804Z,42.63
2023-05-08T02:40:47.702Z,42.67
2023-05-08T02:41:47.688Z,42.65
2023-05-08T02:42:47.671Z,42.67
2023-05-08T02:43:47.673Z,42.68
2023-05-08T02:44:47.692Z,42.67
2023-05-08T02:45:47.682Z,42.66
2023-05-08T02:46:47.679Z,42.66
2023-05-08T02:47:47.710Z,42.67
2023-05-08T02:48:47.674Z,42.67
2023-05-08T02:49:47.653Z,42.66
2023-05-08T02:50:47.665Z,42.68
2023-05-08T02:51:47.732Z,42.66
2023-05-08T02:52:47.741Z,42.67
2023-05-08T02:53:47.773Z,42.68
2023-05-08T02:54:47.824Z,42.68
2023-05-08T02:55:47.852Z,42.67
2023-05-08T02:56:47.894Z,42.66
2023-05-08T02:57:47.907Z,42.67
2023-05-08T02:58:47.965Z,42.70
2023-05-08T02:59:47.968Z,42.68
2023-05-08T03:00:47.984Z,42.70
2023-05-08T03:01:48.075Z,42.66
2023-05-08T03:02:48.152Z,42.66
2023-05-08T03:03:48.231Z,42.66
2023-05-08T03:04:48.147Z,42.66
2023-05-08T03:05:48.169Z,42.65
2023-05-08T03:06:48.196Z,42.66
2023-05-08T03:07:48.786Z,42.66
2023-05-08T03:08:48.285Z,42.67
2023-05-08T03:09:48.325Z,42.70
2023-05-08T03:10:48.327Z,42.69
2023-05-08T03:11:48.405Z,42.69
2023-05-08T03:12:48.455Z,42.68
2023-05-08T03:13:48.430Z,42.68
2023-05-08T03:14:48.474Z,42.69
2023-05-08T03:15:48.499Z,42.68
2023-05-08T03:16:48.506Z,42.67
2023-05-08T03:17:48.584Z,42.68
2023-05-08T03:18:48.579Z,42.72
2023-05-08T03:19:48.665Z,42.67
2023-05-08T03:20:48.675Z,42.69
2023-05-08T03:21:48.721Z,42.68
2023-05-08T03:22:48.767Z,42.66
2023-05-08T03:23:48.818Z,42.66
2023-05-08T03:24:48.800Z,42.70
2023-05-08T03:25:48.876Z,42.73
2023-05-08T03:26:48.881Z,42.72
2023-05-08T03:27:48.904Z,42.68
2023-05-08T03:28:48.984Z,42.66
2023-05-08T03:29:49.037Z,42.67
2023-05-08T03:30:49.056Z,42.69
2023-05-08T03:31:49.104Z,42.66
2023-05-08T03:32:49.184Z,42.68
2023-05-08T03:33:49.163Z,42.68
2023-05-08T03:34:49.180Z,42.69
2023-05-08T03:35:49.253Z,42.69
2023-05-08T03:36:49.275Z,42.68
2023-05-08T03:37:49.305Z,42.69
2023-05-08T03:38:49.337Z,42.71
2023-05-08T03:39:49.362Z,42.70
2023-05-08T03:40:49.416Z,42.71
2023-05-08T03:41:49.466Z,42.70
2023-05-08T03:42:49.525Z,42.70
2023-05-08T03:43:49.509Z,42.69
2023-05-08T03:44:49.541Z,42.69
2023-05-08T03:45:49.596Z,42.72
2023-05-08T03:46:49.671Z,42.71
2023-05-08T03:47:49.725Z,42.70
2023-05-08T03:48:49.695Z,42.67
2023-05-08T03:49:49.768Z,42.68
2023-05-08T03:50:49.784Z,42.68
2023-05-08T03:51:49.852Z,42.68
2023-05-08T03:52:49.861Z,42.69
2023-05-08T03:53:49.909Z,42.67
2023-05-08T03:54:49.942Z,42.64
2023-05-08T03:55:49.989Z,42.69
2023-05-08T03:56:50.009Z,42.69
2023-05-08T03:57:50.057Z,42.67
2023-05-08T03:58:50.073Z,42.68
2023-05-08T03:59:50.126Z,42.70
2023-05-08T04:00:50.149Z,42.68
2023-05-08T04:01:50.241Z,42.69
2023-05-08T04:02:50.308Z,42.69
2023-05-08T04:03:50.411Z,42.66
2023-05-08T04:04:50.315Z,42.67
2023-05-08T04:05:50.337Z,42.66
2023-05-08T04:06:51.086Z,42.68
2023-05-08T04:07:50.474Z,42.69
2023-05-08T04:08:50.442Z,42.71
2023-05-08T04:09:50.516Z,42.66
2023-05-08T04:10:50.529Z,42.66
2023-05-08T04:11:50.581Z,42.68
2023-05-08T04:12:50.620Z,42.69
2023-05-08T04:13:50.660Z,42.67
2023-05-08T04:14:50.725Z,42.68
2023-05-08T04:15:50.720Z,42.70
2023-05-08T04:16:50.805Z,42.70
2023-05-08T04:17:50.896Z,42.69
2023-05-08T04:18:50.852Z,42.67
2023-05-08T04:19:50.903Z,42.69
2023-05-08T04:20:50.918Z,42.70
2023-05-08T04:21:50.975Z,42.68
2023-05-08T04:22:51.076Z,42.69
2023-05-08T04:23:51.035Z,42.72
2023-05-08T04:24:51.100Z,42.69
2023-05-08T04:25:51.116Z,42.69
2023-05-08T04:26:51.183Z,42.69
2023-05-08T04:27:51.834Z,42.70
2023-05-08T04:28:51.213Z,42.71
2023-05-08T04:29:51.262Z,42.71
2023-05-08T04:30:51.292Z,42.67
2023-05-08T04:31:51.482Z,42.70
2023-05-08T04:32:51.386Z,42.70
2023-05-08T04:33:51.433Z,42.72
2023-05-08T04:34:51.850Z,42.70
2023-05-08T04:35:51.538Z,42.69
2023-05-08T04:36:51.540Z,42.70
2023-05-08T04:37:51.569Z,42.70
2023-05-08T04:38:51.623Z,42.68
2023-05-08T04:39:51.589Z,42.69
2023-05-08T04:40:51.628Z,42.69
2023-05-08T04:41:51.680Z,42.69
2023-05-08T04:42:51.680Z,42.70
2023-05-08T04:43:51.685Z,42.69
2023-05-08T04:44:51.733Z,42.70
2023-05-08T04:45:51.759Z,42.69
2023-05-08T04:46:51.760Z,42.69
2023-05-08T04:47:51.831Z,42.67
2023-05-08T04:48:51.869Z,42.69
2023-05-08T04:49:51.868Z,42.69
2023-05-08T04:50:51.890Z,42.67
2023-05-08T04:51:51.964Z,42.71
2023-05-08T04:52:51.938Z,42.69
2023-05-08T04:53:51.954Z,42.68
2023-05-08T04:54:52.006Z,42.69
2023-05-08T04:55:52.019Z,42.68
2023-05-08T04:56:52.054Z,42.69
2023-05-08T04:57:52.085Z,42.69
2023-05-08T04:58:52.099Z,42.68
2023-05-08T04:59:52.163Z,42.70
2023-05-08T05:00:52.178Z,42.68
2023-05-08T05:01:52.240Z,42.68
2023-05-08T05:02:52.382Z,42.69
2023-05-08T05:03:52.275Z,42.68
2023-05-08T05:04:52.307Z,42.67
2023-05-08T05:05:52.368Z,42.69
2023-05-08T05:06:52.389Z,42.71
2023-05-08T05:07:52.473Z,42.71
2023-05-08T05:08:52.465Z,42.72
2023-05-08T05:09:52.564Z,42.70
2023-05-08T05:10:52.562Z,42.68
2023-05-08T05:11:52.605Z,42.69
2023-05-08T05:12:52.693Z,42.69
2023-05-08T05:13:52.700Z,42.70
2023-05-08T05:14:52.756Z,42.71
2023-05-08T05:15:52.821Z,42.68
2023-05-08T05:16:52.829Z,42.70
2023-05-08T05:17:52.927Z,42.70
2023-05-08T05:18:52.994Z,42.68
2023-05-08T05:19:53.512Z,42.72
2023-05-08T05:20:53.004Z,42.68
2023-05-08T05:21:53.152Z,42.67
2023-05-08T05:22:53.083Z,42.69
2023-05-08T05:23:53.099Z,42.72
2023-05-08T05:24:53.123Z,42.69
2023-05-08T05:25:53.172Z,42.70
2023-05-08T05:26:53.215Z,42.69
2023-05-08T05:27:54.892Z,42.69
2023-05-08T05:28:53.325Z,42.72
2023-05-08T05:29:53.342Z,42.87
2023-05-08T05:30:53.426Z,42.97
2023-05-08T05:31:53.585Z,42.83
2023-05-08T05:32:53.579Z,42.80
2023-05-08T05:33:53.809Z,42.84
2023-05-08T05:34:53.786Z,42.86
2023-05-08T05:35:53.585Z,43.24
2023-05-08T05:36:53.682Z,43.67
2023-05-08T05:37:53.687Z,43.55
2023-05-08T05:38:53.714Z,43.42
2023-05-08T05:39:53.705Z,43.66
2023-05-08T05:40:53.734Z,43.92
2023-05-08T05:41:53.856Z,44.19
2023-05-08T05:42:53.748Z,44.66
2023-05-08T05:43:53.753Z,44.78
2023-05-08T05:44:53.761Z,45.68
2023-05-08T05:45:53.762Z,45.68
2023-05-08T05:46:54.078Z,45.89
2023-05-08T05:47:53.812Z,45.74
2023-05-08T05:48:53.736Z,45.92
2023-05-08T05:49:53.758Z,46.00
2023-05-08T05:50:53.927Z,45.99
2023-05-08T05:51:53.832Z,46.10
2023-05-08T05:52:53.880Z,46.61
2023-05-08T05:53:53.937Z,46.67
2023-05-08T05:54:54.004Z,46.64
2023-05-08T05:55:54.035Z,46.92
2023-05-08T05:56:54.102Z,47.81
2023-05-08T05:57:54.163Z,47.39
2023-05-08T05:58:54.214Z,47.20
2023-05-08T05:59:54.950Z,47.22
2023-05-08T06:00:54.321Z,47.19
2023-05-08T06:01:54.410Z,47.29
2023-05-08T06:02:54.650Z,47.24
2023-05-08T06:03:54.517Z,47.54
2023-05-08T06:04:54.529Z,47.74
2023-05-08T06:05:55.748Z,47.71
2023-05-08T06:06:54.593Z,47.99
2023-05-08T06:07:54.642Z,48.00
2023-05-08T06:08:54.702Z,48.20
2023-05-08T06:09:54.701Z,48.29
2023-05-08T06:10:54.694Z,48.43
2023-05-08T06:11:54.758Z,48.75
2023-05-08T06:12:54.804Z,48.72
2023-05-08T06:13:54.799Z,49.73
2023-05-08T06:14:54.825Z,49.36
2023-05-08T06:15:54.832Z,49.29
2023-05-08T06:16:54.891Z,49.10
2023-05-08T06:17:54.932Z,49.18
2023-05-08T06:18:54.942Z,50.33
2023-05-08T06:19:54.969Z,50.01
2023-05-08T06:20:55.074Z,49.74
2023-05-08T06:21:55.057Z,49.75
2023-05-08T06:22:55.085Z,49.58
2023-05-08T06:23:55.105Z,49.84
2023-05-08T06:24:55.161Z,49.87
2023-05-08T06:25:55.175Z,49.90
2023-05-08T06:26:55.191Z,50.18
2023-05-08T06:27:55.267Z,50.38
2023-05-08T06:28:55.252Z,50.33
2023-05-08T06:29:55.306Z,50.30
2023-05-08T06:30:55.371Z,50.44
2023-05-08T06:31:55.336Z,51.42
2023-05-08T06:32:55.403Z,50.94
2023-05-08T06:33:55.514Z,50.75
2023-05-08T06:34:55.404Z,50.67
2023-05-08T06:35:55.369Z,50.64
2023-05-08T06:36:55.387Z,51.26
2023-05-08T06:37:55.403Z,51.17
2023-05-08T06:38:55.466Z,50.89
2023-05-08T06:40:10.160Z,48.78
2023-05-08T06:40:56.485Z,45.63
2023-05-08T06:41:55.456Z,45.61
2023-05-08T06:42:55.412Z,44.90
2023-05-08T06:43:55.516Z,44.72
2023-05-08T06:44:55.390Z,45.02
2023-05-08T06:45:55.425Z,45.63
2023-05-08T06:46:55.515Z,45.63
2023-05-08T06:47:55.426Z,45.22
2023-05-08T06:48:55.861Z,44.75
2023-05-08T06:49:55.371Z,44.57
2023-05-08T06:50:55.385Z,44.41
2023-05-08T06:51:57.672Z,44.84
2023-05-08T06:52:55.646Z,44.36
2023-05-08T06:53:55.695Z,44.29
2023-05-08T06:54:55.858Z,44.33
2023-05-08T06:55:55.849Z,44.38
2023-05-08T06:56:55.937Z,44.39
2023-05-08T06:57:55.934Z,44.54
2023-05-08T06:59:04.999Z,44.31
2023-05-08T06:59:57.008Z,44.34
2023-05-08T07:00:55.991Z,44.29
2023-05-08T07:01:56.031Z,44.31
2023-05-08T07:02:56.136Z,44.24
2023-05-08T07:03:55.965Z,44.22
2023-05-08T07:04:55.986Z,44.29
2023-05-08T07:05:56.045Z,44.12
2023-05-08T07:06:55.964Z,44.14
2023-05-08T07:07:56.017Z,44.28
2023-05-08T07:08:56.046Z,44.38
2023-05-08T07:09:56.096Z,44.65
2023-05-08T07:10:56.170Z,44.74
2023-05-08T07:11:56.215Z,44.72
2023-05-08T07:12:56.343Z,44.89
2023-05-08T07:13:56.326Z,44.94
2023-05-08T07:14:58.008Z,45.15
2023-05-08T07:15:56.520Z,45.23
2023-05-08T07:16:56.485Z,45.34
2023-05-08T07:17:56.543Z,45.51
2023-05-08T07:18:56.531Z,45.82
2023-05-08T07:19:56.549Z,45.82
2023-05-08T07:20:56.702Z,45.83
2023-05-08T07:21:56.608Z,46.38
2023-05-08T07:22:56.619Z,46.22
2023-05-08T07:23:56.622Z,46.04
2023-05-08T07:24:56.644Z,46.34
2023-05-08T07:25:56.779Z,46.26
2023-05-08T07:26:56.726Z,46.31
2023-05-08T07:27:56.991Z,46.48
2023-05-08T07:28:56.721Z,47.06
2023-05-08T07:29:57.450Z,47.15
2023-05-08T07:30:56.748Z,47.62
2023-05-08T07:31:56.809Z,47.45
2023-05-08T07:32:56.787Z,47.11
2023-05-08T07:33:56.788Z,46.82
2023-05-08T07:34:56.930Z,47.05
2023-05-08T07:35:56.843Z,46.59
2023-05-08T07:36:57.403Z,46.65
2023-05-08T07:37:56.908Z,46.64
2023-05-08T07:38:57.070Z,46.73
2023-05-08T07:39:57.393Z,46.64
2023-05-08T07:40:57.095Z,46.85
2023-05-08T07:41:56.990Z,47.03
2023-05-08T07:42:57.418Z,47.13
2023-05-08T07:43:56.906Z,47.43
2023-05-08T07:44:56.944Z,47.41
2023-05-08T07:45:56.949Z,47.45
2023-05-08T07:46:56.978Z,47.27
2023-05-08T07:47:57.064Z,47.31
2023-05-08T07:48:56.967Z,47.58
2023-05-08T07:49:57.006Z,47.59
2023-05-08T07:50:57.425Z,48.01
2023-05-08T07:51:56.963Z,47.77
2023-05-08T07:52:56.968Z,47.63
2023-05-08T07:53:56.941Z,47.70
2023-05-08T07:54:57.877Z,47.79
2023-05-08T07:55:56.966Z,47.92
2023-05-08T07:56:56.916Z,48.00
2023-05-08T07:57:56.923Z,48.39
2023-05-08T07:58:56.958Z,48.31
2023-05-08T07:59:57.040Z,48.70
2023-05-08T08:00:57.017Z,48.30
2023-05-08T08:01:57.089Z,48.46
2023-05-08T08:02:57.196Z,48.89
2023-05-08T08:03:57.218Z,48.85
2023-05-08T08:04:57.163Z,48.84
2023-05-08T08:05:57.288Z,48.85
2023-05-08T08:06:57.337Z,48.77
2023-05-08T08:07:57.389Z,48.98
2023-05-08T08:08:57.349Z,48.86
2023-05-08T08:09:57.418Z,49.36
2023-05-08T08:10:57.473Z,49.36
2023-05-08T08:11:57.517Z,49.47
2023-05-08T08:12:57.567Z,49.23
2023-05-08T08:13:57.547Z,49.30
2023-05-08T08:14:57.679Z,49.62
2023-05-08T08:15:57.645Z,49.45
2023-05-08T08:16:57.746Z,49.47
2023-05-08T08:17:57.815Z,49.66
2023-05-08T08:18:57.841Z,49.98
2023-05-08T08:19:58.470Z,49.79
2023-05-08T08:20:58.901Z,50.62
2023-05-08T08:21:58.016Z,50.19
2023-05-08T08:22:58.195Z,50.43
2023-05-08T08:23:58.147Z,50.65
2023-05-08T08:24:58.191Z,50.22
2023-05-08T08:25:58.279Z,50.09
2023-05-08T08:26:58.343Z,50.17
2023-05-08T08:27:58.435Z,50.52
2023-05-08T08:28:58.463Z,50.60
2023-05-08T08:30:15.189Z,50.59
2023-05-08T08:30:59.626Z,50.60
2023-05-08T08:31:58.516Z,50.64
2023-05-08T08:32:58.502Z,50.71
2023-05-08T08:33:58.563Z,50.65
2023-05-08T08:34:58.447Z,50.68
2023-05-08T08:35:58.498Z,50.63
2023-05-08T08:36:58.446Z,50.64
2023-05-08T08:37:58.451Z,50.64
2023-05-08T08:38:58.413Z,50.65
2023-05-08T08:39:58.401Z,50.77
2023-05-08T08:40:58.388Z,50.87
2023-05-08T08:41:58.454Z,50.72
2023-05-08T08:42:58.406Z,48.50
2023-05-08T08:43:58.422Z,47.16
2023-05-08T08:44:58.382Z,47.70
2023-05-08T08:45:58.524Z,48.75
2023-05-08T08:46:58.442Z,48.28
2023-05-08T08:47:58.409Z,48.08
2023-05-08T08:48:58.361Z,48.22
2023-05-08T08:49:58.329Z,48.24
2023-05-08T08:50:58.341Z,48.49
2023-05-08T08:51:58.323Z,48.46
2023-05-08T08:52:58.373Z,48.15
2023-05-08T08:53:58.444Z,48.32
2023-05-08T08:54:58.383Z,47.94
2023-05-08T08:55:58.477Z,47.97
2023-05-08T08:56:58.507Z,48.28
2023-05-08T08:57:58.453Z,48.38
2023-05-08T08:58:58.486Z,48.07
2023-05-08T08:59:58.507Z,47.94
2023-05-08T09:00:58.522Z,48.04
2023-05-08T09:01:58.597Z,47.30
2023-05-08T09:02:58.813Z,47.71
2023-05-08T09:03:58.726Z,47.72
2023-05-08T09:04:58.652Z,47.68
2023-05-08T09:05:58.925Z,47.53
2023-05-08T09:06:58.632Z,47.57
2023-05-08T09:07:58.730Z,47.46
2023-05-08T09:08:58.663Z,47.37
2023-05-08T09:09:58.688Z,47.32
2023-05-08T09:10:58.685Z,47.23
2023-05-08T09:11:58.683Z,47.23
2023-05-08T09:12:58.709Z,47.12
2023-05-08T09:13:58.687Z,47.04
2023-05-08T09:14:58.677Z,46.81
2023-05-08T09:15:58.728Z,46.82
2023-05-08T09:16:58.719Z,46.94
2023-05-08T09:17:58.796Z,46.46
2023-05-08T09:18:58.847Z,46.73
2023-05-08T09:19:58.721Z,46.70
2023-05-08T09:20:58.763Z,46.70
2023-05-08T09:21:58.766Z,46.74
2023-05-08T09:22:58.782Z,46.39
2023-05-08T09:23:58.828Z,46.54
2023-05-08T09:24:58.854Z,46.60
2023-05-08T09:25:58.839Z,46.62
2023-05-08T09:26:58.846Z,46.60
2023-05-08T09:27:58.869Z,46.49
2023-05-08T09:28:58.940Z,46.44
2023-05-08T09:29:59.073Z,46.42
2023-05-08T09:30:58.977Z,46.38
2023-05-08T09:31:59.059Z,46.16
2023-05-08T09:32:58.942Z,46.46
2023-05-08T09:33:58.993Z,46.41
2023-05-08T09:34:59.113Z,46.36
2023-05-08T09:35:59.449Z,46.44
2023-05-08T09:36:59.133Z,46.44
2023-05-08T09:37:59.211Z,46.46
2023-05-08T09:38:59.189Z,46.41
2023-05-08T09:39:59.200Z,46.40
2023-05-08T09:40:59.229Z,46.32
2023-05-08T09:41:59.304Z,46.41
2023-05-08T09:42:59.545Z,46.38
2023-05-08T09:43:59.295Z,46.33
2023-05-08T09:44:59.425Z,46.29
2023-05-08T09:45:59.478Z,46.34
2023-05-08T09:46:59.944Z,46.35
2023-05-08T09:47:59.570Z,46.32
2023-05-08T09:48:59.508Z,46.34
2023-05-08T09:49:59.464Z,46.31
2023-05-08T09:50:59.586Z,46.35
2023-05-08T09:51:59.594Z,46.34
2023-05-08T09:52:59.933Z,46.32
2023-05-08T09:53:59.452Z,46.31
2023-05-08T09:54:59.527Z,46.27
2023-05-08T09:55:59.477Z,46.22
2023-05-08T09:56:59.499Z,46.21
2023-05-08T09:58:00.387Z,46.33
2023-05-08T10:00:00.437Z,46.32
2023-05-08T10:01:00.410Z,46.24
2023-05-08T10:02:00.384Z,46.24
2023-05-08T10:03:00.617Z,46.23
2023-05-08T10:04:00.400Z,46.34
2023-05-08T10:05:00.394Z,46.25
2023-05-08T10:06:00.374Z,46.33
2023-05-08T10:07:00.444Z,46.29
2023-05-08T10:08:00.361Z,46.26
2023-05-08T10:09:00.337Z,46.12
2023-05-08T10:10:00.377Z,46.18
2023-05-08T10:11:00.334Z,46.17
2023-05-08T10:12:00.321Z,46.21
2023-05-08T10:13:00.437Z,46.14
2023-05-08T10:14:00.302Z,46.12
2023-05-08T10:15:00.303Z,46.19
2023-05-08T10:16:00.299Z,46.16
2023-05-08T10:17:00.331Z,46.12
2023-05-08T10:18:00.305Z,46.06
2023-05-08T10:19:00.319Z,46.02
2023-05-08T10:20:00.307Z,46.02
2023-05-08T10:21:00.278Z,46.06
2023-05-08T10:22:00.247Z,46.02
2023-05-08T10:23:00.338Z,46.06
2023-05-08T10:24:00.311Z,46.01
2023-05-08T10:25:00.230Z,46.04
2023-05-08T10:26:00.262Z,47.00
2023-05-08T10:27:06.300Z,47.11
2023-05-08T10:28:01.224Z,47.03
2023-05-08T10:29:00.197Z,47.31
2023-05-08T10:30:00.218Z,47.45
2023-05-08T10:31:00.793Z,47.39
2023-05-08T10:32:00.217Z,47.20
2023-05-08T10:33:00.303Z,47.27
2023-05-08T10:34:00.179Z,47.27
2023-05-08T10:35:00.239Z,47.25
2023-05-08T10:36:00.195Z,47.24
2023-05-08T10:37:00.196Z,47.13
2023-05-08T10:38:00.178Z,47.10
2023-05-08T10:39:00.238Z,47.03
2023-05-08T10:40:00.166Z,47.02
2023-05-08T10:41:00.224Z,47.15
2023-05-08T10:42:00.181Z,47.14
2023-05-08T10:43:00.160Z,47.02
2023-05-08T10:44:01.739Z,46.72
2023-05-08T10:45:00.133Z,46.92
2023-05-08T10:46:00.218Z,46.95
2023-05-08T10:47:00.189Z,46.84
2023-05-08T10:48:00.137Z,46.75
2023-05-08T10:49:00.061Z,46.89
2023-05-08T10:50:00.087Z,46.83
2023-05-08T10:51:00.049Z,46.78
2023-05-08T10:52:00.069Z,46.73
2023-05-08T10:53:00.028Z,46.69
2023-05-08T10:54:00.024Z,46.72
2023-05-08T10:55:00.059Z,46.64
2023-05-08T10:56:00.024Z,46.64
2023-05-08T10:57:00.176Z,46.67
2023-05-08T10:58:00.044Z,46.62
2023-05-08T10:59:00.005Z,46.62
2023-05-08T11:00:00.005Z,46.64
2023-05-08T11:00:59.978Z,46.61
2023-05-08T11:02:00.035Z,46.58
2023-05-08T11:03:00.069Z,46.62
2023-05-08T11:04:00.032Z,46.61
2023-05-08T11:04:59.939Z,46.56
2023-05-08T11:05:59.965Z,46.51
2023-05-08T11:06:59.931Z,46.63
2023-05-08T11:07:59.958Z,46.50
2023-05-08T11:09:00.917Z,46.48
2023-05-08T11:09:59.922Z,46.52
2023-05-08T11:10:59.910Z,46.52
2023-05-08T11:12:00.017Z,46.50
2023-05-08T11:12:59.902Z,46.51
2023-05-08T11:13:59.922Z,46.53
2023-05-08T11:14:59.890Z,46.52
2023-05-08T11:15:59.930Z,46.59
2023-05-08T11:16:59.936Z,47.06
2023-05-08T11:17:59.903Z,46.88
2023-05-08T11:18:59.868Z,46.73
2023-05-08T11:20:00.084Z,46.74
2023-05-08T11:20:59.832Z,46.66
2023-05-08T11:22:00.179Z,46.69
2023-05-08T11:22:59.865Z,46.60
2023-05-08T11:24:00.624Z,46.46
2023-05-08T11:24:59.822Z,46.48
2023-05-08T11:25:59.885Z,46.37
2023-05-08T11:26:59.806Z,46.37
2023-05-08T11:27:59.808Z,46.35
2023-05-08T11:28:59.842Z,46.38
2023-05-08T11:29:59.803Z,46.40
2023-05-08T11:31:00.668Z,46.29
2023-05-08T11:31:59.860Z,46.36
2023-05-08T11:32:59.858Z,46.28
2023-05-08T11:34:00.196Z,46.29
2023-05-08T11:34:59.749Z,46.23
2023-05-08T11:35:59.824Z,46.24
2023-05-08T11:36:59.806Z,46.25
2023-05-08T11:37:59.714Z,46.22
2023-05-08T11:38:59.734Z,46.21
2023-05-08T11:39:59.803Z,46.18
2023-05-08T11:40:59.843Z,46.16
2023-05-08T11:41:59.869Z,46.09
2023-05-08T11:42:59.854Z,46.11
2023-05-08T11:43:59.905Z,46.13
2023-05-08T11:44:59.970Z,46.09
2023-05-08T11:45:59.965Z,46.12
2023-05-08T11:47:00.043Z,46.08
2023-05-08T11:48:00.121Z,46.11
2023-05-08T11:49:00.073Z,46.13
2023-05-08T11:50:00.106Z,46.09
2023-05-08T11:51:00.147Z,46.09
2023-05-08T11:52:00.291Z,46.05
2023-05-08T11:53:00.229Z,46.02
2023-05-08T11:54:00.217Z,46.00
2023-05-08T11:55:00.217Z,46.05
2023-05-08T11:56:00.225Z,46.03
2023-05-08T11:57:00.273Z,46.04
2023-05-08T11:58:00.265Z,46.03
2023-05-08T11:59:00.621Z,45.99
2023-05-08T12:00:00.300Z,45.97
2023-05-08T12:01:00.355Z,45.97
2023-05-08T12:02:08.719Z,45.92
2023-05-08T12:03:01.468Z,45.94
2023-05-08T12:04:00.578Z,45.87
2023-05-08T12:05:00.470Z,45.96
2023-05-08T12:06:00.321Z,45.89
2023-05-08T12:07:00.332Z,45.87
2023-05-08T12:08:00.312Z,45.91
2023-05-08T12:09:00.304Z,45.87
2023-05-08T12:10:00.271Z,45.85
2023-05-08T12:11:00.295Z,45.80
2023-05-08T12:12:00.271Z,45.81
2023-05-08T12:13:00.369Z,45.78
2023-05-08T12:14:00.272Z,45.81
2023-05-08T12:15:00.304Z,45.75
2023-05-08T12:16:00.368Z,45.67
2023-05-08T12:17:00.317Z,45.76
2023-05-08T12:18:00.357Z,45.68
2023-05-08T12:19:00.359Z,45.63
2023-05-08T12:20:00.366Z,45.54
2023-05-08T12:21:00.437Z,45.53
2023-05-08T12:22:00.481Z,45.62
2023-05-08T12:23:00.513Z,45.57
2023-05-08T12:24:00.571Z,45.54
2023-05-08T12:25:00.572Z,45.51
2023-05-08T12:26:00.591Z,45.56
2023-05-08T12:27:00.702Z,45.57
2023-05-08T12:28:00.722Z,45.53
2023-05-08T12:29:00.725Z,45.52
2023-05-08T12:30:00.746Z,45.50
2023-05-08T12:31:00.865Z,45.52
2023-05-08T12:32:00.905Z,45.49
2023-05-08T12:33:00.899Z,45.48
2023-05-08T12:34:00.932Z,45.46
2023-05-08T12:35:00.952Z,45.44
2023-05-08T12:36:00.949Z,45.40
2023-05-08T12:37:01.656Z,45.44
2023-05-08T12:38:01.209Z,45.41
2023-05-08T12:39:01.012Z,45.31
2023-05-08T12:40:01.039Z,45.32
2023-05-08T12:41:01.075Z,45.34
2023-05-08T12:42:01.287Z,45.34
2023-05-08T12:43:01.213Z,45.30
2023-05-08T12:44:01.211Z,45.30
2023-05-08T12:45:01.232Z,45.19
2023-05-08T12:46:01.298Z,45.24
2023-05-08T12:47:01.420Z,45.21
2023-05-08T12:48:01.325Z,45.23
2023-05-08T12:49:01.366Z,45.23
2023-05-08T12:50:01.330Z,45.22
2023-05-08T12:51:01.355Z,45.23
2023-05-08T12:52:02.171Z,45.19
2023-05-08T12:53:01.421Z,45.15
2023-05-08T12:54:01.461Z,45.15